Time;durP1;ratioP1;P1;durP2;ratioP2;P2;SDS_P1;SDS_P2;PMS_P1;PMS_P2;Temp;Humidity;BMP_temperature;BMP_pressure;BME280_temperature;BME280_humidity;BME280_pressure;Samples;Min_cycle;Max_cycle;Signal;HPM_P1;HPM_P2
2023/07/21 00:02:42;;;;;;;4.05;2.20;;;14.60;99.90;;;;;;5092696;28;20048;-86
2023/07/21 00:05:31;;;;;;;5.07;2.22;;;14.60;99.90;;;;;;5078514;28;20044;-85
2023/07/21 00:08:21;;;;;;;5.22;2.58;;;14.60;99.90;;;;;;5092432;28;20044;-84
2023/07/21 00:11:17;;;;;;;9.10;2.78;;;14.60;99.90;;;;;;5079573;28;20044;-90
2023/07/21 00:14:03;;;;;;;4.72;2.33;;;14.60;99.90;;;;;;5064206;28;20048;-87
2023/07/21 00:16:53;;;;;;;6.75;2.80;;;14.60;99.90;;;;;;5094438;28;20055;-87
2023/07/21 00:19:39;;;;;;;6.70;3.45;;;14.50;99.90;;;;;;5093545;28;20048;-87
2023/07/21 00:22:25;;;;;;;6.88;3.20;;;14.60;99.90;;;;;;5093769;28;20059;-87
2023/07/21 00:25:12;;;;;;;6.63;3.47;;;14.50;99.90;;;;;;5085492;28;20203;-87
2023/07/21 00:27:58;;;;;;;7.90;3.50;;;14.50;99.90;;;;;;5094523;28;20047;-84
2023/07/21 00:30:46;;;;;;;6.75;4.30;;;14.50;99.90;;;;;;5078084;28;20134;-87
2023/07/21 00:33:33;;;;;;;6.95;3.97;;;14.40;99.90;;;;;;5076188;28;20514;-87
2023/07/21 00:36:20;;;;;;;9.10;3.70;;;14.50;99.90;;;;;;5075497;28;20070;-87
2023/07/21 00:39:06;;;;;;;7.68;4.00;;;14.40;99.90;;;;;;5060964;28;20093;-87
2023/07/21 00:41:52;;;;;;;6.15;3.15;;;14.40;99.90;;;;;;5080495;28;20040;-86
2023/07/21 00:44:38;;;;;;;8.95;3.65;;;14.40;99.90;;;;;;5094938;28;20399;-86
2023/07/21 00:47:26;;;;;;;7.43;3.25;;;14.40;99.90;;;;;;5093432;28;20055;-85
2023/07/21 00:50:14;;;;;;;6.32;3.47;;;14.30;99.90;;;;;;5093426;28;20567;-88
2023/07/21 00:53:05;;;;;;;6.80;3.33;;;14.30;99.90;;;;;;5095509;28;20050;-87
2023/07/21 00:55:51;;;;;;;6.00;2.92;;;14.20;99.90;;;;;;5098023;28;20051;-87
2023/07/21 00:58:41;;;;;;;6.70;2.97;;;14.20;99.90;;;;;;5103905;28;20525;-87
2023/07/21 01:01:27;;;;;;;9.15;3.05;;;14.20;99.90;;;;;;5083774;28;20102;-86
2023/07/21 01:04:13;;;;;;;6.20;3.22;;;14.10;99.90;;;;;;5079400;28;20117;-87
2023/07/21 01:07:03;;;;;;;6.43;2.92;;;14.10;99.90;;;;;;5094350;28;20052;-84
2023/07/21 01:09:50;;;;;;;7.90;3.38;;;14.10;99.90;;;;;;5092809;28;20419;-85
2023/07/21 01:12:36;;;;;;;5.07;2.92;;;14.10;99.90;;;;;;5078250;28;20063;-86
2023/07/21 01:15:25;;;;;;;6.72;3.00;;;14.00;99.90;;;;;;5075033;28;20411;-86
2023/07/21 01:18:14;;;;;;;7.20;3.05;;;14.10;99.90;;;;;;5092694;28;20051;-85
2023/07/21 01:21:02;;;;;;;5.82;2.92;;;14.10;99.90;;;;;;5093984;28;20488;-88
2023/07/21 01:23:58;;;;;;;8.73;2.97;;;14.10;99.90;;;;;;5093595;28;20131;-86
2023/07/21 01:26:48;;;;;;;5.95;2.40;;;14.10;99.90;;;;;;5092274;28;20518;-87
2023/07/21 01:29:37;;;;;;;6.07;2.55;;;14.10;99.90;;;;;;5092786;28;20500;-85
2023/07/21 01:32:26;;;;;;;6.80;2.88;;;14.10;99.90;;;;;;5094041;28;20054;-86
2023/07/21 01:35:16;;;;;;;5.45;2.53;;;14.20;99.90;;;;;;5092863;28;20048;-85
2023/07/21 01:38:03;;;;;;;8.60;2.92;;;14.10;99.90;;;;;;5075456;28;20059;-87
2023/07/21 01:40:51;;;;;;;6.97;2.22;;;14.10;99.90;;;;;;5092477;28;20056;-85
2023/07/21 01:43:37;;;;;;;6.72;2.47;;;14.10;99.90;;;;;;5076062;28;20067;-86
2023/07/21 01:46:23;;;;;;;9.50;2.60;;;14.10;99.90;;;;;;5075367;28;20052;-86
2023/07/21 01:49:09;;;;;;;5.22;2.15;;;14.10;99.90;;;;;;5093446;28;20558;-88
2023/07/21 01:51:57;;;;;;;5.55;2.47;;;14.00;99.90;;;;;;5076412;28;20060;-85
2023/07/21 01:54:58;;;;;;;7.00;2.38;;;14.00;99.90;;;;;;5093339;28;20047;-87
2023/07/21 01:57:50;;;;;;;4.93;2.10;;;14.00;99.90;;;;;;5059853;28;20109;-86
2023/07/21 02:00:41;;;;;;;5.03;2.15;;;14.00;99.90;;;;;;5077218;28;20048;-88
2023/07/21 02:03:28;;;;;;;7.15;2.35;;;14.00;99.90;;;;;;5093211;28;20056;-87
2023/07/21 02:06:17;;;;;;;5.53;2.05;;;14.00;99.90;;;;;;5073339;28;20048;-86
2023/07/21 02:09:03;;;;;;;8.52;2.97;;;13.90;99.90;;;;;;5091544;28;20048;-86
2023/07/21 02:11:49;;;;;;;7.82;2.25;;;13.90;99.90;;;;;;5092677;28;20052;-86
2023/07/21 02:14:35;;;;;;;5.43;2.60;;;13.90;99.90;;;;;;5075587;28;20130;-86
2023/07/21 02:17:21;;;;;;;7.30;2.28;;;13.90;99.90;;;;;;5060730;28;20519;-86
2023/07/21 02:20:09;;;;;;;5.65;2.50;;;13.90;99.90;;;;;;5095150;28;20056;-85
2023/07/21 02:22:55;;;;;;;5.43;2.78;;;13.90;99.90;;;;;;5091521;28;20040;-87
2023/07/21 02:25:43;;;;;;;5.53;2.22;;;13.90;99.90;;;;;;5092587;28;20142;-88
2023/07/21 02:28:29;;;;;;;6.07;2.20;;;13.90;99.90;;;;;;5092606;28;20055;-87
2023/07/21 02:31:15;;;;;;;5.90;2.17;;;13.90;99.90;;;;;;5094587;28;20055;-86
2023/07/21 02:34:01;;;;;;;6.50;2.25;;;13.80;99.90;;;;;;5047415;28;20633;-89
2023/07/21 02:36:47;;;;;;;4.22;2.10;;;13.80;99.90;;;;;;5093915;28;20102;-87
2023/07/21 02:39:34;;;;;;;4.18;2.08;;;13.80;99.90;;;;;;5100741;28;20040;-85
2023/07/21 02:42:20;;;;;;;4.05;2.03;;;13.80;99.90;;;;;;5089584;28;20146;-86
2023/07/21 02:45:06;;;;;;;4.45;1.70;;;13.80;99.90;;;;;;5061733;28;20487;-83
2023/07/21 02:47:52;;;;;;;4.38;1.65;;;13.80;99.90;;;;;;5074470;28;20052;-89
2023/07/21 02:50:39;;;;;;;4.82;1.88;;;13.80;99.90;;;;;;5073367;28;20105;-86
2023/07/21 02:53:25;;;;;;;4.03;1.95;;;13.70;99.90;;;;;;5092118;28;20518;-85
2023/07/21 02:56:11;;;;;;;4.82;1.83;;;13.70;99.90;;;;;;5091985;28;20048;-85
2023/07/21 02:58:58;;;;;;;5.78;1.85;;;13.70;99.90;;;;;;5092023;28;20048;-84
2023/07/21 03:01:54;;;;;;;7.65;2.05;;;13.70;99.90;;;;;;5090898;28;20054;-84
2023/07/21 03:04:42;;;;;;;4.82;1.95;;;13.70;99.90;;;;;;5092753;28;20055;-82
2023/07/21 03:07:28;;;;;;;4.68;1.80;;;13.70;99.90;;;;;;5091046;28;20061;-83
2023/07/21 03:10:16;;;;;;;7.28;2.30;;;13.60;99.90;;;;;;5084957;28;20044;-81
2023/07/21 03:13:02;;;;;;;4.32;2.00;;;13.70;99.90;;;;;;5099756;28;20055;-81
2023/07/21 03:15:54;;;;;;;5.20;2.55;;;13.60;99.90;;;;;;5101704;28;20040;-82
2023/07/21 03:18:40;;;;;;;5.95;2.13;;;13.60;99.90;;;;;;5073310;28;20059;-87
2023/07/21 03:21:26;;;;;;;8.85;2.92;;;13.60;99.90;;;;;;5059102;28;20085;-88
2023/07/21 03:24:14;;;;;;;5.82;2.70;;;13.60;99.90;;;;;;5091422;28;20191;-86
2023/07/21 03:27:01;;;;;;;4.60;2.47;;;13.60;99.90;;;;;;5092534;28;20048;-87
2023/07/21 03:29:51;;;;;;;9.15;3.35;;;13.60;99.90;;;;;;5091609;28;20716;-87
2023/07/21 03:32:38;;;;;;;7.22;2.40;;;13.50;99.90;;;;;;5091466;28;20060;-87
2023/07/21 03:35:24;;;;;;;5.82;2.85;;;13.60;99.90;;;;;;5090282;28;20044;-81
2023/07/21 03:38:10;;;;;;;7.35;2.83;;;13.60;99.90;;;;;;5091947;28;20074;-87
2023/07/21 03:41:10;;;;;;;8.63;3.90;;;13.60;99.90;;;;;;5096817;28;20134;-87
2023/07/21 03:43:56;;;;;;;8.85;3.72;;;13.60;99.90;;;;;;5065267;28;20056;-86
2023/07/21 03:46:42;;;;;;;12.02;4.53;;;13.60;99.90;;;;;;5080156;28;20089;-86
2023/07/21 03:49:28;;;;;;;8.55;3.47;;;13.60;99.90;;;;;;5101323;28;20052;-83
2023/07/21 03:52:15;;;;;;;6.93;3.17;;;13.60;99.90;;;;;;5106019;28;20048;-85
2023/07/21 03:55:01;;;;;;;6.85;3.33;;;13.70;99.90;;;;;;5097747;28;20108;-82
2023/07/21 03:57:47;;;;;;;7.47;2.78;;;13.70;99.90;;;;;;5095307;28;20520;-86
2023/07/21 04:00:33;;;;;;;8.70;3.08;;;13.80;99.90;;;;;;5078168;28;20052;-86
2023/07/21 04:03:20;;;;;;;7.28;2.90;;;13.80;99.90;;;;;;5075757;28;20048;-83
2023/07/21 04:06:08;;;;;;;7.15;3.22;;;13.80;99.90;;;;;;5061552;28;20082;-83
2023/07/21 04:08:55;;;;;;;7.53;3.25;;;13.90;99.90;;;;;;5059784;28;20052;-85
2023/07/21 04:11:42;;;;;;;5.70;2.83;;;13.90;99.90;;;;;;5073813;28;20164;-88
2023/07/21 04:14:28;;;;;;;6.13;3.10;;;13.90;99.90;;;;;;5089588;28;20036;-86
2023/07/21 04:17:14;;;;;;;4.97;2.40;;;13.90;99.90;;;;;;5072082;28;20059;-83
2023/07/21 04:20:00;;;;;;;7.13;3.35;;;14.00;99.90;;;;;;5090114;28;20044;-85
2023/07/21 04:22:46;;;;;;;8.57;3.15;;;14.00;99.90;;;;;;5089540;28;20105;-84
2023/07/21 04:25:32;;;;;;;5.80;3.08;;;14.10;99.90;;;;;;5091211;28;20059;-86
2023/07/21 04:28:18;;;;;;;6.20;3.00;;;14.10;99.90;;;;;;5089964;28;20392;-86
2023/07/21 04:31:05;;;;;;;5.75;3.03;;;14.10;99.90;;;;;;5072278;28;20499;-83
2023/07/21 04:33:51;;;;;;;8.20;3.20;;;14.20;99.90;;;;;;5090871;28;20048;-84
2023/07/21 04:36:37;;;;;;;8.15;4.38;;;14.20;99.90;;;;;;5089903;28;20044;-85
2023/07/21 04:39:23;;;;;;;8.85;4.05;;;14.20;99.90;;;;;;5088664;28;20123;-84
2023/07/21 04:42:09;;;;;;;11.55;3.97;;;14.20;99.90;;;;;;5089317;28;20052;-83
2023/07/21 04:44:56;;;;;;;8.68;3.38;;;14.20;99.90;;;;;;5090248;28;20139;-83
2023/07/21 04:47:42;;;;;;;9.20;3.03;;;14.30;99.90;;;;;;5071877;28;20075;-85
2023/07/21 04:50:28;;;;;;;8.43;3.30;;;14.40;99.90;;;;;;5071486;28;20048;-85
2023/07/21 04:53:14;;;;;;;8.63;3.47;;;14.40;99.90;;;;;;5089493;28;20040;-88
2023/07/21 04:56:00;;;;;;;10.15;3.67;;;14.40;99.90;;;;;;5095481;28;20079;-86
2023/07/21 04:58:47;;;;;;;6.75;3.00;;;14.50;99.90;;;;;;5084850;28;20461;-85
2023/07/21 05:01:33;;;;;;;7.03;3.30;;;14.60;99.90;;;;;;5082550;28;20219;-85
2023/07/21 05:04:20;;;;;;;6.65;3.30;;;14.70;99.90;;;;;;5098683;28;20040;-87
2023/07/21 05:07:08;;;;;;;6.93;3.03;;;14.70;99.90;;;;;;5095892;28;20054;-86
2023/07/21 05:09:55;;;;;;;6.65;3.03;;;14.80;99.90;;;;;;5078645;28;20060;-88
2023/07/21 05:12:42;;;;;;;6.38;3.35;;;14.80;99.90;;;;;;5096084;28;20075;-88
2023/07/21 05:15:29;;;;;;;5.80;2.60;;;14.80;99.90;;;;;;5100946;28;20135;-87
2023/07/21 05:18:15;;;;;;;7.40;3.15;;;14.90;99.90;;;;;;5081024;28;20048;-88
2023/07/21 05:21:01;;;;;;;5.10;3.25;;;14.90;99.90;;;;;;5096771;28;20058;-88
2023/07/21 05:23:47;;;;;;;6.55;3.05;;;15.00;99.90;;;;;;5094983;28;20142;-87
2023/07/21 05:26:36;;;;;;;9.32;3.20;;;15.00;99.90;;;;;;5092371;28;20419;-86
2023/07/21 05:29:22;;;;;;;8.55;3.35;;;15.00;99.90;;;;;;5074146;28;20059;-86
2023/07/21 05:32:09;;;;;;;10.48;3.90;;;15.10;99.90;;;;;;5091723;28;20100;-86
2023/07/21 05:34:55;;;;;;;6.95;3.63;;;15.20;99.90;;;;;;5092799;28;20048;-87
2023/07/21 05:37:41;;;;;;;13.55;3.33;;;15.30;99.90;;;;;;5092712;28;20051;-88
2023/07/21 05:40:27;;;;;;;9.52;3.45;;;15.40;99.90;;;;;;5093077;28;20047;-86
2023/07/21 05:43:13;;;;;;;7.03;3.17;;;15.50;99.90;;;;;;5092623;28;20507;-86
2023/07/21 05:46:02;;;;;;;8.85;3.58;;;15.50;99.90;;;;;;5074101;28;20500;-86
2023/07/21 05:48:48;;;;;;;9.82;3.13;;;15.50;99.90;;;;;;5092294;28;20079;-87
2023/07/21 05:51:34;;;;;;;6.40;2.88;;;15.60;99.90;;;;;;5078169;28;20044;-88
2023/07/21 05:54:20;;;;;;;10.27;3.38;;;15.70;99.90;;;;;;5091980;28;20040;-84
2023/07/21 05:57:07;;;;;;;12.43;3.22;;;15.70;99.90;;;;;;5092553;28;20056;-86
2023/07/21 05:59:53;;;;;;;8.00;3.45;;;15.70;99.90;;;;;;5093320;28;20102;-86
2023/07/21 06:02:39;;;;;;;5.88;3.47;;;15.80;99.90;;;;;;5091620;28;20395;-83
2023/07/21 06:05:25;;;;;;;8.38;3.58;;;15.90;99.90;;;;;;5073341;28;20044;-82
2023/07/21 06:08:11;;;;;;;6.68;3.15;;;16.00;99.90;;;;;;5075264;28;20077;-83
2023/07/21 06:10:59;;;;;;;7.18;3.70;;;15.90;99.90;;;;;;5092226;28;20052;-82
2023/07/21 06:13:45;;;;;;;10.32;4.13;;;15.90;99.90;;;;;;5073205;28;20047;-86
2023/07/21 06:16:31;;;;;;;8.82;4.30;;;16.00;99.90;;;;;;5064011;28;20126;-84
2023/07/21 06:19:18;;;;;;;7.75;3.72;;;15.90;99.90;;;;;;5065192;28;20059;-84
2023/07/21 06:22:04;;;;;;;8.63;4.03;;;16.00;99.90;;;;;;5092726;28;20094;-81
2023/07/21 06:24:50;;;;;;;8.05;4.55;;;16.20;99.90;;;;;;5092036;28;20052;-83
2023/07/21 06:27:36;;;;;;;7.15;3.80;;;16.20;99.90;;;;;;5092059;28;20097;-82
2023/07/21 06:30:22;;;;;;;9.65;3.90;;;16.30;99.90;;;;;;5091854;28;20413;-83
2023/07/21 06:33:08;;;;;;;7.47;3.60;;;16.40;99.90;;;;;;5090636;28;20082;-84
2023/07/21 06:35:54;;;;;;;9.90;3.80;;;16.50;99.90;;;;;;5074397;28;20048;-85
2023/07/21 06:38:40;;;;;;;8.60;4.22;;;16.50;99.90;;;;;;5091278;28;20052;-84
2023/07/21 06:41:26;;;;;;;11.32;4.22;;;16.50;99.90;;;;;;5092538;28;20052;-86
2023/07/21 06:44:14;;;;;;;7.90;3.92;;;16.60;99.90;;;;;;5074792;28;20051;-86
2023/07/21 06:47:00;;;;;;;12.48;4.35;;;16.70;99.90;;;;;;5093797;28;20044;-86
2023/07/21 06:49:47;;;;;;;8.52;4.55;;;16.80;99.90;;;;;;5093882;28;20047;-84
2023/07/21 06:52:33;;;;;;;8.23;3.88;;;16.80;99.90;;;;;;5096801;28;20095;-87
2023/07/21 06:55:19;;;;;;;6.93;4.05;;;16.80;99.90;;;;;;5091381;28;20503;-87
2023/07/21 06:58:05;;;;;;;9.10;3.83;;;16.80;99.90;;;;;;5092314;28;20044;-88
2023/07/21 07:00:52;;;;;;;10.63;4.55;;;16.80;99.90;;;;;;5073354;28;20384;-88
2023/07/21 07:03:38;;;;;;;7.10;4.10;;;16.80;99.90;;;;;;5092260;28;20040;-87
2023/07/21 07:06:29;;;;;;;8.85;3.58;;;16.90;99.90;;;;;;5094234;28;20067;-86
2023/07/21 07:09:16;;;;;;;7.53;3.90;;;17.00;99.90;;;;;;5084573;28;20045;-86
2023/07/21 07:12:03;;;;;;;9.32;4.30;;;16.90;99.90;;;;;;5082316;28;20050;-87
2023/07/21 07:14:49;;;;;;;7.93;3.97;;;16.90;99.90;;;;;;5098181;28;20063;-88
2023/07/21 07:17:36;;;;;;;7.93;4.53;;;17.00;99.90;;;;;;5080714;28;20063;-88
2023/07/21 07:20:22;;;;;;;8.18;3.85;;;17.10;99.90;;;;;;5104802;28;20051;-87
2023/07/21 07:23:08;;;;;;;8.63;3.92;;;17.20;99.90;;;;;;5083810;28;20135;-85
2023/07/21 07:25:54;;;;;;;6.60;3.70;;;17.20;99.90;;;;;;5091577;28;20075;-89
2023/07/21 07:28:40;;;;;;;8.73;3.95;;;17.30;99.90;;;;;;5090542;28;20040;-85
2023/07/21 07:31:26;;;;;;;8.23;4.25;;;17.50;99.90;;;;;;5074668;28;20084;-87
2023/07/21 07:34:15;;;;;;;7.45;3.75;;;17.80;99.90;;;;;;5090748;28;20059;-87
2023/07/21 07:37:02;;;;;;;9.40;4.05;;;17.90;99.90;;;;;;5092190;28;20056;-86
2023/07/21 07:39:48;;;;;;;8.35;4.85;;;17.90;99.90;;;;;;5080381;28;20496;-87
2023/07/21 07:42:34;;;;;;;8.32;4.38;;;18.00;99.90;;;;;;5092222;28;20506;-84
2023/07/21 07:45:20;;;;;;;7.82;3.40;;;18.00;99.90;;;;;;5094547;28;20055;-88
2023/07/21 07:48:09;;;;;;;11.68;4.00;;;18.00;99.90;;;;;;5103724;28;20048;-86
2023/07/21 07:50:55;;;;;;;9.32;4.07;;;18.10;99.90;;;;;;5097878;28;20044;-85
2023/07/21 07:53:42;;;;;;;8.25;3.92;;;18.10;99.90;;;;;;5094358;28;20075;-85
2023/07/21 07:56:28;;;;;;;8.32;4.00;;;18.30;99.90;;;;;;5076777;28;20085;-85
2023/07/21 07:59:14;;;;;;;6.05;3.45;;;18.30;99.90;;;;;;5076646;28;20101;-85
2023/07/21 08:02:00;;;;;;;7.70;3.20;;;18.40;99.90;;;;;;5074183;28;20430;-88
2023/07/21 08:04:46;;;;;;;6.80;2.65;;;18.60;99.90;;;;;;5090995;28;20067;-85
2023/07/21 08:07:33;;;;;;;6.35;2.72;;;18.70;99.90;;;;;;5091502;28;20044;-89
2023/07/21 08:10:19;;;;;;;6.38;2.75;;;18.70;99.90;;;;;;5090989;28;20048;-83
2023/07/21 08:13:06;;;;;;;7.70;3.35;;;18.70;99.90;;;;;;5073924;28;20056;-86
2023/07/21 08:15:52;;;;;;;6.85;3.60;;;18.80;99.90;;;;;;5093707;28;20040;-85
2023/07/21 08:18:38;;;;;;;6.88;3.30;;;18.80;99.90;;;;;;5092371;28;20068;-85
2023/07/21 08:21:27;;;;;;;8.13;4.28;;;18.80;99.90;;;;;;5091193;28;20450;-86
2023/07/21 08:24:14;;;;;;;6.22;3.55;;;19.00;99.90;;;;;;5078680;28;20052;-87
2023/07/21 08:27:02;;;;;;;7.80;3.30;;;19.00;99.90;;;;;;5073984;28;20106;-87
2023/07/21 08:29:49;;;;;;;7.40;3.50;;;19.00;99.90;;;;;;5077147;28;20066;-86
2023/07/21 08:32:36;;;;;;;5.13;3.03;;;19.10;99.90;;;;;;5092855;28;20044;-84
2023/07/21 08:35:22;;;;;;;5.70;2.90;;;19.20;99.90;;;;;;5076094;28;20044;-85
2023/07/21 08:38:08;;;;;;;15.15;4.38;;;19.40;99.90;;;;;;5093895;28;20055;-87
2023/07/21 08:41:04;;;;;;;8.65;3.15;;;19.20;99.90;;;;;;5099048;28;20052;-84
2023/07/21 08:43:50;;;;;;;7.25;4.00;;;19.20;99.90;;;;;;5075161;28;20055;-85
2023/07/21 08:46:36;;;;;;;7.35;3.72;;;19.20;99.90;;;;;;5093509;28;20153;-85
2023/07/21 08:49:23;;;;;;;6.07;3.45;;;19.30;99.90;;;;;;5092879;28;20559;-83
2023/07/21 08:52:09;;;;;;;7.50;3.30;;;19.40;99.90;;;;;;5075368;28;20080;-86
2023/07/21 08:54:55;;;;;;;5.68;3.35;;;19.70;99.90;;;;;;5093960;28;20492;-87
2023/07/21 08:57:41;;;;;;;9.95;4.07;;;19.60;99.90;;;;;;5094629;28;20403;-84
2023/07/21 09:00:27;;;;;;;7.63;3.72;;;19.60;99.90;;;;;;5094230;28;20738;-83
2023/07/21 09:03:25;;;;;;;6.28;3.80;;;19.90;99.90;;;;;;5078009;28;20079;-86
2023/07/21 09:06:13;;;;;;;6.20;2.50;;;20.30;99.90;;;;;;5100286;28;20105;-85
2023/07/21 09:09:00;;;;;;;4.55;2.88;;;20.70;99.90;;;;;;5086558;28;20044;-84
2023/07/21 09:11:47;;;;;;;6.90;2.90;;;20.90;99.90;;;;;;5094648;28;20083;-86
2023/07/21 09:14:44;;;;;;;9.70;3.80;;;21.60;99.90;;;;;;5076376;28;20048;-85
2023/07/21 09:17:32;;;;;;;7.20;4.40;;;21.70;99.80;;;;;;5092915;28;20106;-87
2023/07/21 09:20:18;;;;;;;6.80;3.33;;;21.40;99.90;;;;;;5093637;28;20468;-84
2023/07/21 09:23:07;;;;;;;6.32;3.63;;;21.40;99.90;;;;;;5094944;28;20484;-85
2023/07/21 09:25:57;;;;;;;6.47;3.83;;;21.70;99.90;;;;;;5080198;28;20052;-86
2023/07/21 09:28:44;;;;;;;7.10;3.78;;;21.40;99.50;;;;;;5095287;28;20408;-85
2023/07/21 09:31:33;;;;;;;7.55;3.95;;;21.60;99.40;;;;;;5095043;28;20081;-84
2023/07/21 09:34:19;;;;;;;8.00;3.67;;;21.40;99.50;;;;;;5095912;28;20067;-86
2023/07/21 09:37:07;;;;;;;8.10;4.47;;;21.00;99.70;;;;;;5074777;28;20483;-83
2023/07/21 09:39:58;;;;;;;12.27;5.70;;;21.10;99.90;;;;;;5094444;28;20044;-84
2023/07/21 09:42:45;;;;;;;9.10;5.22;;;20.90;99.90;;;;;;5059581;28;20051;-80
2023/07/21 09:45:32;;;;;;;23.05;6.63;;;20.70;99.90;;;;;;5091562;28;20065;-81
2023/07/21 09:48:19;;;;;;;11.63;5.30;;;20.40;99.90;;;;;;5062001;28;20048;-80
2023/07/21 09:51:10;;;;;;;8.73;4.50;;;19.90;99.90;;;;;;5092878;28;20048;-79
2023/07/21 09:54:04;;;;;;;7.90;4.18;;;19.60;99.90;;;;;;5091480;28;20056;-80
2023/07/21 09:56:52;;;;;;;8.52;4.63;;;19.50;99.90;;;;;;5091400;28;20181;-80
2023/07/21 09:59:42;;;;;;;14.18;5.78;;;19.50;99.90;;;;;;5091984;28;20143;-80
2023/07/21 10:02:30;;;;;;;12.27;5.15;;;19.60;99.90;;;;;;5091666;28;20080;-80
2023/07/21 10:05:16;;;;;;;12.93;4.93;;;19.80;99.90;;;;;;5091320;28;20457;-80
2023/07/21 10:08:03;;;;;;;13.00;4.72;;;20.00;99.90;;;;;;5092639;28;20056;-80
2023/07/21 10:10:49;;;;;;;7.45;4.50;;;20.10;99.90;;;;;;5091101;28;20052;-80
2023/07/21 10:13:44;;;;;;;7.95;4.13;;;20.00;99.90;;;;;;5091960;28;20101;-81
2023/07/21 10:16:30;;;;;;;7.15;3.72;;;19.90;99.90;;;;;;5092567;28;20147;-81
2023/07/21 10:19:16;;;;;;;8.57;3.80;;;20.00;99.90;;;;;;5090537;28;20048;-81
2023/07/21 10:22:02;;;;;;;9.52;3.85;;;20.00;99.90;;;;;;5074268;28;20684;-80
2023/07/21 10:24:52;;;;;;;8.10;4.05;;;20.10;99.90;;;;;;5092224;28;20048;-80
2023/07/21 10:27:38;;;;;;;7.57;3.67;;;20.20;99.90;;;;;;5074197;28;20056;-81
2023/07/21 10:30:24;;;;;;;8.60;3.70;;;20.30;99.90;;;;;;5074945;28;20044;-84
2023/07/21 10:33:20;;;;;;;7.38;2.97;;;20.50;99.90;;;;;;5093381;28;20079;-82
2023/07/21 10:36:15;;;;;;;6.95;3.20;;;20.80;99.90;;;;;;5090774;28;20051;-83
2023/07/21 10:39:01;;;;;;;6.65;3.40;;;21.00;99.90;;;;;;5091404;28;20083;-82
2023/07/21 10:41:49;;;;;;;6.93;3.17;;;21.20;99.90;;;;;;5073018;28;20044;-83
2023/07/21 10:44:40;;;;;;;5.32;2.75;;;21.30;99.90;;;;;;5075758;28;20052;-82
2023/07/21 10:47:26;;;;;;;6.13;2.53;;;21.30;99.90;;;;;;5090459;28;20450;-82
2023/07/21 10:50:12;;;;;;;6.13;2.65;;;21.00;99.90;;;;;;5090279;28;20450;-82
2023/07/21 10:52:59;;;;;;;4.60;2.40;;;21.00;99.90;;;;;;5075797;28;20193;-82
2023/07/21 10:55:45;;;;;;;6.78;2.97;;;20.80;99.90;;;;;;5090336;28;20044;-82
2023/07/21 10:58:32;;;;;;;6.65;2.67;;;20.50;99.90;;;;;;5090731;28;20052;-83
2023/07/21 11:01:19;;;;;;;10.07;3.35;;;19.80;99.90;;;;;;5090563;28;20530;-80
2023/07/21 11:04:05;;;;;;;9.75;3.13;;;19.10;99.90;;;;;;5091748;28;20048;-82
2023/07/21 11:06:54;;;;;;;6.35;2.38;;;18.90;99.90;;;;;;5072374;28;20043;-83
2023/07/21 11:09:43;;;;;;;5.03;2.25;;;18.80;99.90;;;;;;5091128;28;20534;-81
2023/07/21 11:12:30;;;;;;;6.18;2.40;;;18.70;99.90;;;;;;5090577;28;20078;-80
2023/07/21 11:15:18;;;;;;;8.60;3.33;;;18.70;99.90;;;;;;5090381;28;20044;-82
2023/07/21 11:18:05;;;;;;;5.65;3.05;;;18.50;99.90;;;;;;5073820;28;20048;-82
2023/07/21 11:20:52;;;;;;;8.18;2.80;;;18.50;99.90;;;;;;5072652;28;20526;-81
2023/07/21 11:23:38;;;;;;;8.55;2.78;;;18.50;99.90;;;;;;5072472;28;20047;-81
2023/07/21 11:26:24;;;;;;;9.90;3.13;;;18.30;99.90;;;;;;5071850;28;20423;-81
2023/07/21 11:29:10;;;;;;;12.65;3.45;;;18.00;99.90;;;;;;5090771;28;20052;-80
2023/07/21 11:31:58;;;;;;;9.30;2.50;;;17.80;99.90;;;;;;5075470;28;20040;-81
2023/07/21 11:34:45;;;;;;;8.38;2.95;;;17.50;99.90;;;;;;5089452;28;20149;-80
2023/07/21 11:37:44;;;;;;;8.52;2.05;;;17.40;99.90;;;;;;5089600;28;20070;-81
2023/07/21 11:40:33;;;;;;;7.20;2.28;;;17.40;99.90;;;;;;5089394;28;20052;-80
2023/07/21 11:43:19;;;;;;;8.45;2.20;;;17.30;99.90;;;;;;5089784;28;20139;-81
2023/07/21 11:46:05;;;;;;;6.53;2.45;;;17.30;99.90;;;;;;5076357;28;20043;-80
2023/07/21 11:48:54;;;;;;;8.52;2.22;;;17.30;99.90;;;;;;5058853;28;20060;-81
2023/07/21 11:51:45;;;;;;;11.60;2.70;;;17.30;99.90;;;;;;5075289;28;20044;-80
2023/07/21 11:54:38;;;;;;;5.25;2.72;;;17.30;99.90;;;;;;5091796;28;20075;-80
2023/07/21 11:57:24;;;;;;;9.98;2.90;;;17.20;99.90;;;;;;5090771;28;20052;-82
2023/07/21 12:00:11;;;;;;;6.85;2.50;;;17.40;99.90;;;;;;5089116;28;20052;-80
2023/07/21 12:02:58;;;;;;;5.47;2.10;;;17.60;99.90;;;;;;5091113;28;20512;-81
2023/07/21 12:05:45;;;;;;;7.18;2.42;;;17.80;99.90;;;;;;5072492;28;20059;-81
2023/07/21 12:08:32;;;;;;;4.47;2.40;;;18.00;99.90;;;;;;5094240;28;20621;-81
2023/07/21 12:11:18;;;;;;;5.35;2.38;;;18.10;99.90;;;;;;5080738;28;20064;-81
2023/07/21 12:14:05;;;;;;;5.32;2.17;;;18.10;99.90;;;;;;5094450;28;20507;-80
2023/07/21 12:16:56;;;;;;;7.63;2.85;;;18.10;99.90;;;;;;5093937;28;20040;-80
2023/07/21 12:19:42;;;;;;;5.03;2.58;;;18.10;99.90;;;;;;5094212;28;20385;-80
2023/07/21 12:22:28;;;;;;;7.57;2.20;;;18.00;99.90;;;;;;5094569;28;20052;-80
2023/07/21 12:25:14;;;;;;;6.53;2.40;;;18.00;99.90;;;;;;5094858;28;20699;-81
2023/07/21 12:28:00;;;;;;;4.55;2.15;;;18.00;99.90;;;;;;5095103;28;20048;-81
2023/07/21 12:30:47;;;;;;;7.68;2.75;;;18.00;99.90;;;;;;5094703;28;20415;-81
2023/07/21 12:33:35;;;;;;;7.50;2.58;;;18.00;99.90;;;;;;5092822;28;20484;-81
2023/07/21 12:36:21;;;;;;;5.40;2.10;;;18.10;99.90;;;;;;5094811;28;20059;-82
2023/07/21 12:39:12;;;;;;;8.52;2.30;;;18.00;99.90;;;;;;5094496;28;20169;-80
2023/07/21 12:41:58;;;;;;;5.10;2.15;;;18.00;99.90;;;;;;5074308;28;20052;-80
2023/07/21 12:44:45;;;;;;;6.00;2.55;;;17.80;99.90;;;;;;5077699;28;20522;-81
2023/07/21 12:47:31;;;;;;;6.90;3.28;;;17.70;99.90;;;;;;5094329;28;20134;-81
2023/07/21 12:50:18;;;;;;;6.28;2.42;;;17.80;99.90;;;;;;5093431;28;20600;-82
2023/07/21 12:53:04;;;;;;;4.80;2.20;;;17.80;99.90;;;;;;5078897;28;20109;-81
2023/07/21 12:55:50;;;;;;;4.88;2.30;;;17.90;99.90;;;;;;5060320;28;20510;-82
2023/07/21 12:58:36;;;;;;;8.00;3.22;;;18.00;99.90;;;;;;5094016;28;20043;-82
2023/07/21 13:01:23;;;;;;;8.07;2.90;;;18.00;99.90;;;;;;5092528;28;20047;-82
2023/07/21 13:04:12;;;;;;;6.80;2.60;;;17.90;99.90;;;;;;5092428;28;20040;-80
2023/07/21 13:06:58;;;;;;;5.07;2.17;;;17.90;99.90;;;;;;5091851;28;20056;-81
2023/07/21 13:09:45;;;;;;;4.95;2.45;;;17.80;99.90;;;;;;5091581;28;20427;-80
2023/07/21 13:12:31;;;;;;;4.72;2.10;;;17.70;99.90;;;;;;5076565;28;20500;-80
2023/07/21 13:15:17;;;;;;;6.55;2.90;;;17.70;99.90;;;;;;5075317;28;20079;-80
2023/07/21 13:18:05;;;;;;;7.82;2.42;;;17.80;99.90;;;;;;5075584;28;20403;-81
2023/07/21 13:20:51;;;;;;;5.38;2.78;;;17.70;99.90;;;;;;5093340;28;20044;-82
2023/07/21 13:23:38;;;;;;;5.75;2.72;;;17.70;99.90;;;;;;5094393;28;20403;-81
2023/07/21 13:26:24;;;;;;;10.35;2.78;;;17.60;99.90;;;;;;5093529;28;20181;-81
2023/07/21 13:29:13;;;;;;;15.32;3.45;;;17.60;99.90;;;;;;5073904;28;20048;-82
2023/07/21 13:31:59;;;;;;;5.97;3.42;;;17.60;99.90;;;;;;5092450;28;20399;-81
2023/07/21 13:34:45;;;;;;;6.32;3.38;;;17.50;99.90;;;;;;5093182;28;20377;-81
2023/07/21 13:37:31;;;;;;;9.32;4.13;;;17.40;99.90;;;;;;5092976;28;20430;-81
2023/07/21 13:40:17;;;;;;;8.18;3.55;;;17.40;99.90;;;;;;5092977;28;20052;-81
2023/07/21 13:43:04;;;;;;;9.73;3.80;;;17.40;99.90;;;;;;5073816;28;20080;-82
2023/07/21 13:45:50;;;;;;;8.07;3.92;;;17.30;99.90;;;;;;5091335;28;20055;-83
2023/07/21 13:48:36;;;;;;;5.38;3.53;;;17.20;99.90;;;;;;5092090;28;20125;-82
2023/07/21 13:51:23;;;;;;;6.28;3.78;;;17.20;99.90;;;;;;5073804;28;20055;-81
2023/07/21 13:54:09;;;;;;;8.07;2.95;;;17.30;99.90;;;;;;5090900;28;20048;-81
2023/07/21 13:56:55;;;;;;;5.15;2.88;;;17.20;99.90;;;;;;5091048;28;20059;-81
2023/07/21 13:59:42;;;;;;;6.35;2.60;;;17.20;99.90;;;;;;5092422;28;20084;-80
2023/07/21 14:02:29;;;;;;;6.90;3.55;;;17.40;99.90;;;;;;5091753;28;20052;-82
2023/07/21 14:05:15;;;;;;;6.18;2.40;;;17.30;99.90;;;;;;5077607;28;20052;-83
2023/07/21 14:08:01;;;;;;;5.38;2.65;;;17.40;99.90;;;;;;5076676;28;20040;-81
2023/07/21 14:10:48;;;;;;;6.05;2.90;;;17.40;99.90;;;;;;5091187;28;20052;-81
2023/07/21 14:13:34;;;;;;;7.05;2.97;;;17.50;99.90;;;;;;5090955;28;20121;-81
2023/07/21 14:16:20;;;;;;;7.65;2.30;;;17.70;99.90;;;;;;5091712;28;20051;-81
2023/07/21 14:19:06;;;;;;;4.57;2.20;;;17.80;99.90;;;;;;5090702;28;20058;-80
2023/07/21 14:21:52;;;;;;;5.50;2.17;;;18.10;99.90;;;;;;5059823;28;20522;-81
2023/07/21 14:24:38;;;;;;;6.50;3.05;;;18.10;99.90;;;;;;5092680;28;20135;-80
2023/07/21 14:27:25;;;;;;;7.10;3.10;;;18.20;99.90;;;;;;5091849;28;20078;-81
2023/07/21 14:30:11;;;;;;;6.18;3.10;;;18.00;99.90;;;;;;5076122;28;20534;-81